Time;durP1;ratioP1;P1;durP2;ratioP2;P2;SDS_P1;SDS_P2;PMS_P1;PMS_P2;Temp;Humidity;BMP_temperature;BMP_pressure;BME280_temperature;BME280_humidity;BME280_pressure;Samples;Min_cycle;Max_cycle;Signal;HPM_P1;HPM_P2
2023/03/12 00:01:54;;;;;;;1.47;0.83;;;11.50;99.90;;;;;;5087020;28;20661;-90
2023/03/12 00:04:26;;;;;;;4.53;1.17;;;11.20;99.90;;;;;;5079992;28;20249;-89
2023/03/12 00:06:59;;;;;;;2.27;0.90;;;11.10;99.90;;;;;;5078548;28;20239;-89
2023/03/12 00:09:30;;;;;;;4.60;1.30;;;11.10;99.90;;;;;;5078473;28;20257;-90
2023/03/12 00:12:01;;;;;;;4.27;1.33;;;11.20;99.90;;;;;;5077721;28;20234;-90
2023/03/12 00:14:33;;;;;;;2.37;0.97;;;11.00;99.90;;;;;;5077363;28;20285;-90
2023/03/12 00:17:04;;;;;;;3.40;1.30;;;11.00;99.90;;;;;;5078859;28;20252;-91
2023/03/12 00:19:35;;;;;;;4.20;1.17;;;10.80;99.90;;;;;;5077218;28;20607;-89
2023/03/12 00:22:08;;;;;;;3.43;1.10;;;10.80;99.90;;;;;;5077929;28;20211;-92
2023/03/12 00:24:39;;;;;;;3.60;1.50;;;10.50;99.90;;;;;;5088032;28;20612;-91
2023/03/12 00:27:10;;;;;;;4.57;1.13;;;10.40;99.90;;;;;;5098275;28;20203;-92
2023/03/12 00:29:41;;;;;;;2.60;1.20;;;10.30;99.90;;;;;;5085989;28;20680;-90
2023/03/12 00:32:13;;;;;;;3.63;1.10;;;10.40;99.90;;;;;;5078875;28;20231;-91
2023/03/12 00:34:44;;;;;;;5.13;1.17;;;10.40;99.90;;;;;;5077219;28;20214;-90
2023/03/12 00:37:17;;;;;;;3.80;1.23;;;10.40;99.90;;;;;;5077188;28;20212;-91
2023/03/12 00:39:48;;;;;;;5.37;1.20;;;10.40;99.90;;;;;;5077021;28;20211;-90
2023/03/12 00:42:20;;;;;;;5.43;1.47;;;10.20;99.90;;;;;;5077908;28;20237;-90
2023/03/12 00:44:51;;;;;;;2.63;1.10;;;10.10;99.90;;;;;;5076567;28;20200;-90
2023/03/12 00:47:22;;;;;;;2.40;1.10;;;9.90;99.90;;;;;;5075204;28;20272;-89
2023/03/12 00:49:53;;;;;;;4.10;1.33;;;9.90;99.90;;;;;;5058218;28;20200;-91
2023/03/12 00:52:26;;;;;;;3.53;1.10;;;9.70;99.90;;;;;;5076740;28;20269;-91
2023/03/12 00:55:00;;;;;;;4.23;1.50;;;9.60;99.90;;;;;;5077214;28;20603;-90
2023/03/12 00:57:31;;;;;;;3.03;1.10;;;9.50;99.90;;;;;;5075810;28;20222;-89
2023/03/12 01:00:03;;;;;;;3.20;1.10;;;9.50;99.90;;;;;;5079974;28;20223;-88
2023/03/12 01:02:33;;;;;;;3.37;1.30;;;9.50;99.90;;;;;;5078096;28;20203;-90
2023/03/12 01:05:05;;;;;;;5.13;1.80;;;9.50;99.90;;;;;;5079500;28;20204;-90
2023/03/12 01:07:38;;;;;;;2.07;1.10;;;9.50;99.90;;;;;;5072464;28;20271;-89
2023/03/12 01:10:12;;;;;;;4.53;1.47;;;9.40;99.90;;;;;;5097842;28;20199;-89
2023/03/12 01:12:44;;;;;;;5.43;1.87;;;9.50;99.90;;;;;;5095562;28;20285;-90
2023/03/12 01:15:18;;;;;;;2.70;1.10;;;9.50;99.90;;;;;;5078232;28;20199;-89
2023/03/12 01:17:50;;;;;;;3.00;1.20;;;9.50;99.90;;;;;;5076771;28;20254;-90
2023/03/12 01:20:21;;;;;;;5.03;1.43;;;9.40;99.90;;;;;;5076442;28;20207;-90
2023/03/12 01:22:55;;;;;;;3.27;1.13;;;9.20;99.90;;;;;;5077154;28;20614;-91
2023/03/12 01:25:25;;;;;;;3.13;1.30;;;9.10;99.90;;;;;;5077633;28;20211;-92
2023/03/12 01:27:57;;;;;;;3.93;1.30;;;9.10;99.90;;;;;;5076871;28;20199;-91
2023/03/12 01:30:28;;;;;;;5.17;1.70;;;9.00;99.90;;;;;;5077045;28;20265;-91
2023/03/12 01:33:00;;;;;;;3.63;1.43;;;9.00;99.90;;;;;;5076123;28;20239;-91
2023/03/12 01:35:31;;;;;;;3.40;1.30;;;8.90;99.90;;;;;;5074950;28;20208;-90
2023/03/12 01:38:05;;;;;;;3.97;1.40;;;8.80;99.90;;;;;;5075145;28;20215;-90
2023/03/12 01:40:37;;;;;;;4.13;1.50;;;8.70;99.90;;;;;;5076227;28;20218;-91
2023/03/12 01:43:26;;;;;;;6.10;1.67;;;8.60;99.90;;;;;;5076354;28;20200;-90
2023/03/12 01:46:08;;;;;;;5.20;1.47;;;8.60;99.90;;;;;;5075678;28;20235;-89
2023/03/12 01:48:43;;;;;;;2.40;1.40;;;8.60;99.90;;;;;;5074652;28;20215;-90
2023/03/12 01:51:16;;;;;;;4.43;1.50;;;8.50;99.90;;;;;;5062243;28;20204;-90
2023/03/12 01:53:51;;;;;;;3.90;1.33;;;8.40;99.90;;;;;;5055313;28;20231;-91
2023/03/12 01:56:22;;;;;;;7.77;1.83;;;8.40;99.90;;;;;;5075132;28;20199;-89
2023/03/12 01:58:56;;;;;;;5.30;1.50;;;8.30;99.90;;;;;;5087359;28;20265;-92
2023/03/12 02:01:28;;;;;;;2.93;1.27;;;8.30;99.90;;;;;;5076680;28;20202;-90
2023/03/12 02:04:01;;;;;;;6.17;1.57;;;8.20;99.90;;;;;;5077093;28;20204;-91
2023/03/12 02:06:39;;;;;;;3.23;1.30;;;8.20;99.90;;;;;;5076228;28;20238;-90
2023/03/12 02:09:12;;;;;;;4.57;1.40;;;8.20;99.90;;;;;;5091257;28;20218;-89
2023/03/12 02:11:43;;;;;;;8.00;1.90;;;8.10;99.90;;;;;;5095757;28;20206;-89
2023/03/12 02:14:15;;;;;;;5.90;1.40;;;8.00;99.90;;;;;;5085119;28;20239;-89
2023/03/12 02:16:47;;;;;;;6.73;1.57;;;8.00;99.90;;;;;;5075113;28;20207;-89
2023/03/12 02:19:25;;;;;;;4.77;1.30;;;7.90;99.90;;;;;;5073630;28;20215;-89
2023/03/12 02:21:57;;;;;;;5.73;1.50;;;7.90;99.90;;;;;;5073453;28;20211;-91
2023/03/12 02:24:36;;;;;;;5.20;1.80;;;7.90;99.90;;;;;;5067258;28;20224;-90
2023/03/12 02:27:11;;;;;;;3.77;1.77;;;7.80;99.90;;;;;;5055430;28;20345;-89
2023/03/12 02:29:45;;;;;;;7.13;1.80;;;7.80;99.90;;;;;;5055334;28;20204;-90
2023/03/12 02:32:24;;;;;;;4.80;1.67;;;7.80;99.90;;;;;;5080201;28;20660;-91
2023/03/12 02:34:57;;;;;;;5.03;1.43;;;7.70;99.90;;;;;;5089622;28;20727;-91
2023/03/12 02:37:28;;;;;;;4.63;1.30;;;7.70;99.90;;;;;;5073793;28;20199;-91
2023/03/12 02:40:06;;;;;;;3.73;1.43;;;7.60;99.90;;;;;;5076119;28;20287;-90
2023/03/12 02:42:40;;;;;;;4.53;1.80;;;7.60;99.90;;;;;;5075438;28;20290;-92
2023/03/12 02:45:14;;;;;;;3.80;1.50;;;7.60;99.90;;;;;;5078948;28;20219;-90
2023/03/12 02:47:46;;;;;;;5.67;1.53;;;7.50;99.90;;;;;;5074018;28;20675;-91
2023/03/12 02:50:17;;;;;;;4.03;1.50;;;7.40;99.90;;;;;;5087951;28;20203;-91
2023/03/12 02:52:48;;;;;;;3.83;1.70;;;7.40;99.90;;;;;;5056654;28;20666;-91
2023/03/12 02:55:19;;;;;;;4.30;1.53;;;7.40;99.90;;;;;;5072163;28;20261;-91
2023/03/12 02:57:52;;;;;;;7.07;1.57;;;7.30;99.90;;;;;;5074861;28;20698;-91
2023/03/12 03:00:24;;;;;;;4.63;2.13;;;7.30;99.90;;;;;;5075897;28;20212;-90
2023/03/12 03:02:55;;;;;;;3.47;1.77;;;7.20;99.90;;;;;;5075969;28;20249;-91
2023/03/12 03:05:25;;;;;;;5.23;2.00;;;7.10;99.90;;;;;;5080746;28;20232;-90
2023/03/12 03:07:56;;;;;;;5.57;2.00;;;7.10;99.90;;;;;;5086261;28;20196;-90
2023/03/12 03:10:27;;;;;;;5.23;1.33;;;7.10;99.90;;;;;;5075236;28;20211;-90
2023/03/12 03:13:00;;;;;;;2.77;1.50;;;7.10;99.90;;;;;;5079493;28;20207;-90
2023/03/12 03:15:31;;;;;;;4.63;1.47;;;7.10;99.90;;;;;;5084415;28;20237;-89
2023/03/12 03:18:03;;;;;;;2.67;1.10;;;7.00;99.90;;;;;;5095285;28;20192;-89
2023/03/12 03:20:34;;;;;;;2.40;1.00;;;7.10;99.90;;;;;;5126264;28;20203;-89
2023/03/12 03:23:05;;;;;;;4.03;1.47;;;7.00;99.90;;;;;;5078952;28;20207;-91
2023/03/12 03:25:37;;;;;;;4.30;1.33;;;7.00;99.90;;;;;;5076287;28;20216;-90
2023/03/12 03:28:09;;;;;;;3.47;1.20;;;7.00;99.90;;;;;;5073941;28;20203;-89
2023/03/12 03:30:40;;;;;;;4.13;1.60;;;7.00;99.90;;;;;;5088581;28;20245;-90
2023/03/12 03:33:11;;;;;;;4.17;1.70;;;7.00;99.90;;;;;;5094200;28;20229;-90
2023/03/12 03:35:42;;;;;;;2.60;1.40;;;6.90;99.90;;;;;;5075144;28;20207;-90
2023/03/12 03:38:14;;;;;;;4.03;2.00;;;6.80;99.90;;;;;;5073090;28;20219;-90
2023/03/12 03:40:46;;;;;;;3.40;1.53;;;6.80;99.90;;;;;;5074990;28;20210;-91
2023/03/12 03:43:20;;;;;;;4.27;1.70;;;6.70;99.90;;;;;;5074372;28;20273;-91
2023/03/12 03:45:59;;;;;;;2.53;1.60;;;6.60;99.90;;;;;;5074691;28;20617;-92
2023/03/12 03:48:31;;;;;;;3.53;1.53;;;6.40;99.90;;;;;;5054542;28;20200;-90
2023/03/12 03:51:03;;;;;;;3.73;1.60;;;6.40;99.90;;;;;;5075652;28;20257;-91
2023/03/12 03:53:36;;;;;;;4.87;2.90;;;6.40;99.90;;;;;;5076997;28;20223;-90
2023/03/12 03:56:10;;;;;;;6.00;2.90;;;6.20;99.90;;;;;;5076505;28;20232;-90
2023/03/12 03:58:42;;;;;;;5.83;2.87;;;6.10;99.90;;;;;;5074684;28;20200;-90
2023/03/12 04:01:15;;;;;;;4.80;2.87;;;6.10;99.90;;;;;;5074740;28;20253;-90
2023/03/12 04:03:47;;;;;;;3.27;2.10;;;6.00;99.90;;;;;;5074620;28;20215;-91
2023/03/12 04:06:18;;;;;;;6.57;2.17;;;6.00;99.90;;;;;;5075090;28;20269;-90
2023/03/12 04:08:49;;;;;;;7.77;2.47;;;6.00;99.90;;;;;;5074539;28;20199;-90
2023/03/12 04:11:22;;;;;;;3.27;2.10;;;5.90;99.90;;;;;;5074882;28;20199;-89
2023/03/12 04:13:56;;;;;;;3.77;2.23;;;5.80;99.90;;;;;;5059108;28;20223;-89
2023/03/12 04:16:28;;;;;;;7.27;2.73;;;5.80;99.90;;;;;;5075131;28;20580;-88
2023/03/12 04:18:59;;;;;;;4.63;2.90;;;5.80;99.90;;;;;;5074961;28;20199;-89
2023/03/12 04:21:31;;;;;;;4.97;2.27;;;5.70;99.90;;;;;;5078032;28;20271;-90
2023/03/12 04:24:03;;;;;;;3.57;2.63;;;5.70;99.90;;;;;;5078678;28;20215;-91
2023/03/12 04:26:37;;;;;;;4.47;2.90;;;5.70;99.90;;;;;;5069943;28;20306;-89
2023/03/12 04:29:11;;;;;;;4.23;2.30;;;5.60;99.90;;;;;;5085409;28;20204;-90
2023/03/12 04:31:43;;;;;;;5.87;2.90;;;5.60;99.90;;;;;;5094669;28;20748;-90
2023/03/12 04:34:15;;;;;;;5.03;3.20;;;5.50;99.90;;;;;;5094428;28;20258;-89
2023/03/12 04:36:48;;;;;;;4.17;2.97;;;5.40;99.90;;;;;;5097833;28;20188;-89
2023/03/12 04:39:20;;;;;;;4.40;2.73;;;5.40;99.90;;;;;;5093617;28;20203;-91
2023/03/12 04:41:52;;;;;;;4.30;2.80;;;5.40;99.90;;;;;;5093248;28;20203;-91
2023/03/12 04:44:26;;;;;;;7.83;2.67;;;5.40;99.90;;;;;;5083709;28;20204;-91
2023/03/12 04:46:58;;;;;;;6.00;2.40;;;5.30;99.90;;;;;;5080093;28;20228;-89
2023/03/12 04:49:30;;;;;;;5.33;2.27;;;5.30;99.90;;;;;;5080456;28;20208;-90
2023/03/12 04:52:01;;;;;;;6.73;2.97;;;5.30;99.90;;;;;;5076891;28;20207;-90
2023/03/12 04:54:34;;;;;;;8.07;2.73;;;5.20;99.90;;;;;;5077684;28;20308;-90
2023/03/12 04:57:06;;;;;;;6.63;2.57;;;5.10;99.90;;;;;;5083988;28;20212;-89
2023/03/12 04:59:39;;;;;;;7.60;2.93;;;5.10;99.90;;;;;;5094596;28;20215;-90
2023/03/12 05:02:10;;;;;;;6.23;3.00;;;5.10;99.90;;;;;;5096718;28;20204;-90
2023/03/12 05:04:43;;;;;;;5.33;3.03;;;5.00;99.90;;;;;;5097104;28;20269;-91
2023/03/12 05:07:14;;;;;;;8.93;4.07;;;5.00;99.90;;;;;;5105277;28;20202;-90
2023/03/12 05:09:46;;;;;;;7.23;3.77;;;4.80;99.90;;;;;;5097257;28;20215;-89
2023/03/12 05:12:19;;;;;;;5.60;3.90;;;4.80;99.90;;;;;;5096482;28;20184;-89
2023/03/12 05:14:54;;;;;;;8.37;4.93;;;4.70;99.90;;;;;;5088716;28;20231;-89
2023/03/12 05:17:25;;;;;;;8.43;5.50;;;4.60;99.90;;;;;;5079680;28;20230;-91
2023/03/12 05:19:57;;;;;;;6.77;4.73;;;4.60;99.90;;;;;;5071375;28;20214;-91
2023/03/12 05:22:29;;;;;;;6.60;4.50;;;4.60;99.90;;;;;;5083792;28;20204;-90
2023/03/12 05:25:00;;;;;;;5.83;4.03;;;4.60;99.90;;;;;;5094116;28;20289;-90
2023/03/12 05:27:32;;;;;;;6.73;4.17;;;4.50;99.90;;;;;;5085794;28;20192;-92
2023/03/12 05:30:08;;;;;;;4.63;3.07;;;4.50;99.90;;;;;;5088806;28;20205;-91
2023/03/12 05:32:40;;;;;;;7.10;2.90;;;4.40;99.90;;;;;;5085384;28;20203;-90
2023/03/12 05:35:13;;;;;;;6.27;3.37;;;4.40;99.90;;;;;;5082104;28;20223;-89
2023/03/12 05:37:45;;;;;;;7.17;4.20;;;4.30;99.90;;;;;;5077458;28;20204;-90
2023/03/12 05:40:18;;;;;;;6.23;3.43;;;4.30;99.90;;;;;;5091347;28;20180;-91
2023/03/12 05:42:49;;;;;;;6.97;3.50;;;4.30;99.90;;;;;;5083124;28;20258;-90
2023/03/12 05:45:22;;;;;;;8.23;3.63;;;4.20;99.90;;;;;;5076336;28;20196;-91
2023/03/12 05:47:57;;;;;;;5.50;3.37;;;4.20;99.90;;;;;;5083191;28;20266;-91
2023/03/12 05:50:29;;;;;;;6.03;3.10;;;4.10;99.90;;;;;;5094422;28;20226;-91
2023/03/12 05:53:00;;;;;;;10.87;5.83;;;4.10;99.90;;;;;;5096472;28;20218;-91
2023/03/12 05:55:35;;;;;;;9.17;4.57;;;4.10;99.90;;;;;;5098065;28;20234;-90
2023/03/12 05:58:08;;;;;;;6.17;3.80;;;4.10;99.90;;;;;;5079986;28;20656;-91
2023/03/12 06:00:43;;;;;;;5.97;3.00;;;4.00;99.90;;;;;;5097106;28;20252;-90
2023/03/12 06:03:14;;;;;;;6.87;3.37;;;4.00;99.90;;;;;;5095989;28;20252;-90
2023/03/12 06:05:46;;;;;;;5.83;3.47;;;4.00;99.90;;;;;;5088002;28;20210;-91
2023/03/12 06:08:18;;;;;;;7.33;3.43;;;4.00;99.90;;;;;;5074867;28;20210;-91
2023/03/12 06:10:53;;;;;;;5.90;3.60;;;4.00;99.90;;;;;;5075512;28;20226;-92
2023/03/12 06:13:26;;;;;;;8.63;3.90;;;4.00;99.90;;;;;;5086071;28;20646;-90
2023/03/12 06:16:07;;;;;;;9.43;3.73;;;3.90;99.90;;;;;;5093378;28;20239;-89
2023/03/12 06:18:40;;;;;;;6.30;3.53;;;3.90;99.90;;;;;;5076166;28;20693;-91
2023/03/12 06:21:15;;;;;;;9.57;4.30;;;3.90;99.90;;;;;;5077350;28;20199;-90
2023/03/12 06:23:46;;;;;;;8.70;3.30;;;3.80;99.90;;;;;;5077062;28;20206;-91
2023/03/12 06:26:20;;;;;;;5.60;3.40;;;3.80;99.90;;;;;;5075089;28;20211;-90
2023/03/12 06:28:52;;;;;;;6.90;4.27;;;3.80;99.90;;;;;;5076988;28;20731;-89
2023/03/12 06:31:27;;;;;;;5.53;3.90;;;3.70;99.90;;;;;;5086179;28;20231;-89
2023/03/12 06:33:58;;;;;;;5.33;2.93;;;3.70;99.90;;;;;;5074537;28;20221;-90
2023/03/12 06:36:30;;;;;;;5.37;3.10;;;3.70;99.90;;;;;;5074942;28;20716;-91
2023/03/12 06:39:04;;;;;;;4.97;3.00;;;3.70;99.90;;;;;;5075976;28;20261;-90
2023/03/12 06:41:38;;;;;;;5.70;2.73;;;3.60;99.90;;;;;;5077391;28;20203;-90
2023/03/12 06:44:10;;;;;;;5.73;2.70;;;3.50;99.90;;;;;;5064870;28;20653;-92
2023/03/12 06:46:44;;;;;;;4.13;2.90;;;3.50;99.90;;;;;;5074590;28;20207;-91
2023/03/12 06:49:16;;;;;;;4.83;2.90;;;3.50;99.90;;;;;;5068446;28;21515;-89
2023/03/12 06:51:48;;;;;;;7.27;2.97;;;3.50;99.90;;;;;;5074237;28;20195;-90
2023/03/12 06:54:20;;;;;;;7.17;3.20;;;3.50;99.90;;;;;;5072708;28;20218;-90
2023/03/12 06:56:52;;;;;;;3.87;2.63;;;3.50;99.90;;;;;;5071004;28;20231;-91
2023/03/12 06:59:24;;;;;;;7.63;3.20;;;3.50;99.90;;;;;;5069101;28;20574;-92
2023/03/12 07:01:58;;;;;;;4.90;2.73;;;3.40;99.90;;;;;;5077994;28;20207;-91
2023/03/12 07:04:30;;;;;;;4.77;2.90;;;3.40;99.90;;;;;;5073102;28;20231;-91
2023/03/12 07:07:01;;;;;;;5.43;3.10;;;3.40;99.90;;;;;;5066389;28;20200;-91
2023/03/12 07:09:33;;;;;;;5.90;3.60;;;3.30;99.90;;;;;;5074072;28;20208;-90
2023/03/12 07:12:05;;;;;;;8.27;4.13;;;3.20;99.90;;;;;;5074666;28;20219;-90
2023/03/12 07:14:36;;;;;;;8.50;4.23;;;3.20;99.90;;;;;;5079423;28;20259;-91
2023/03/12 07:17:10;;;;;;;4.60;3.20;;;3.20;99.90;;;;;;5094448;28;20250;-91
2023/03/12 07:19:42;;;;;;;4.37;2.93;;;3.20;99.90;;;;;;5077196;28;20214;-91
2023/03/12 07:22:14;;;;;;;6.20;3.63;;;3.20;99.90;;;;;;5078835;28;20636;-90
2023/03/12 07:24:50;;;;;;;3.97;2.80;;;3.10;99.90;;;;;;5074438;28;20221;-91
2023/03/12 07:27:21;;;;;;;6.13;3.10;;;3.10;99.90;;;;;;5074280;28;20218;-90
2023/03/12 07:29:53;;;;;;;4.10;2.30;;;3.10;99.90;;;;;;5074678;28;20269;-90
2023/03/12 07:32:27;;;;;;;3.53;2.07;;;3.10;99.90;;;;;;5075009;28;20204;-91
2023/03/12 07:34:59;;;;;;;3.77;2.20;;;3.10;99.90;;;;;;5074833;28;20207;-90
2023/03/12 07:37:31;;;;;;;4.63;2.20;;;3.10;99.90;;;;;;5074119;28;20235;-90
2023/03/12 07:40:06;;;;;;;5.67;2.00;;;3.10;99.90;;;;;;5114787;28;20200;-91
2023/03/12 07:42:37;;;;;;;6.60;2.03;;;3.10;99.90;;;;;;5077393;28;20203;-91
2023/03/12 07:45:10;;;;;;;4.10;2.30;;;3.00;99.90;;;;;;5090848;28;20207;-89
2023/03/12 07:47:45;;;;;;;6.60;1.83;;;2.90;99.90;;;;;;5082635;28;20265;-92
2023/03/12 07:50:18;;;;;;;4.43;2.17;;;2.90;99.90;;;;;;5083286;28;20199;-90
2023/03/12 07:52:50;;;;;;;3.00;2.10;;;2.90;99.90;;;;;;5074622;28;20217;-92
2023/03/12 07:55:23;;;;;;;3.57;2.03;;;2.90;99.90;;;;;;5073230;28;20232;-90
2023/03/12 07:57:57;;;;;;;4.07;2.37;;;2.90;99.90;;;;;;5056683;28;20256;-91
2023/03/12 08:00:29;;;;;;;4.87;2.40;;;2.90;99.90;;;;;;5086665;28;20210;-90
2023/03/12 08:03:03;;;;;;;3.37;2.00;;;2.90;99.90;;;;;;5087594;28;20211;-91
2023/03/12 08:05:35;;;;;;;5.00;2.10;;;2.90;99.90;;;;;;5084945;28;20229;-91
2023/03/12 08:08:09;;;;;;;2.83;1.97;;;2.80;99.90;;;;;;5082419;28;20261;-91
2023/03/12 08:10:42;;;;;;;4.60;1.93;;;2.80;99.90;;;;;;5078187;28;20215;-92
2023/03/12 08:13:13;;;;;;;5.30;2.03;;;2.80;99.90;;;;;;5063176;28;20200;-91
2023/03/12 08:15:46;;;;;;;3.00;1.80;;;2.80;99.90;;;;;;5062354;28;20295;-91
2023/03/12 08:18:21;;;;;;;6.83;2.13;;;2.80;99.90;;;;;;5074558;28;20242;-91
2023/03/12 08:20:54;;;;;;;2.97;2.00;;;2.80;99.90;;;;;;5057500;28;20208;-91
2023/03/12 08:23:26;;;;;;;2.87;1.97;;;2.80;99.90;;;;;;5052634;28;20200;-91
2023/03/12 08:25:57;;;;;;;5.47;2.00;;;2.70;99.90;;;;;;5084801;28;20249;-89
2023/03/12 08:28:29;;;;;;;4.97;2.17;;;2.70;99.90;;;;;;5077025;28;20203;-91
2023/03/12 08:31:02;;;;;;;3.63;2.10;;;2.70;99.90;;;;;;5076608;28;20208;-92
2023/03/12 08:33:39;;;;;;;3.50;2.20;;;2.60;99.90;;;;;;5062573;28;20241;-92
2023/03/12 08:36:12;;;;;;;4.10;2.10;;;2.60;99.90;;;;;;5057843;28;20299;-90
2023/03/12 08:38:44;;;;;;;4.23;2.03;;;2.60;99.90;;;;;;5067721;28;20260;-91
2023/03/12 08:41:15;;;;;;;5.00;2.23;;;2.50;99.90;;;;;;5078668;28;20311;-92
2023/03/12 08:43:47;;;;;;;6.17;2.20;;;2.50;99.90;;;;;;5096227;28;20199;-91
2023/03/12 08:46:19;;;;;;;5.33;2.60;;;2.50;99.90;;;;;;5097498;28;20226;-91
2023/03/12 08:48:53;;;;;;;5.07;2.23;;;2.50;99.90;;;;;;5090041;28;20203;-89
2023/03/12 08:51:24;;;;;;;5.20;2.47;;;2.50;99.90;;;;;;5075419;28;21271;-89
2023/03/12 08:53:56;;;;;;;3.90;2.10;;;2.50;99.90;;;;;;5078953;28;20203;-91
2023/03/12 08:56:28;;;;;;;5.47;2.13;;;2.50;99.90;;;;;;5078979;28;20223;-92
2023/03/12 08:59:00;;;;;;;2.70;1.87;;;2.50;99.90;;;;;;5075814;28;20208;-91
2023/03/12 09:01:32;;;;;;;3.13;1.63;;;2.40;99.90;;;;;;5079211;28;20215;-91
2023/03/12 09:04:06;;;;;;;2.87;1.77;;;2.40;99.90;;;;;;5076919;28;20192;-91
2023/03/12 09:06:37;;;;;;;3.10;1.63;;;2.40;99.90;;;;;;5076756;28;20235;-91
2023/03/12 09:09:09;;;;;;;1.83;1.50;;;2.40;99.90;;;;;;5076447;28;20204;-91
2023/03/12 09:11:41;;;;;;;2.03;1.40;;;2.40;99.90;;;;;;5110946;28;20215;-91
2023/03/12 09:14:14;;;;;;;2.00;1.30;;;2.40;99.90;;;;;;5108231;28;20251;-90
2023/03/12 09:17:05;;;;;;;3.67;1.40;;;2.30;99.90;;;;;;5076759;28;20255;-92
2023/03/12 09:19:40;;;;;;;4.13;1.23;;;2.30;99.90;;;;;;5075410;28;20222;-91
2023/03/12 09:22:13;;;;;;;2.20;1.33;;;2.30;99.90;;;;;;5078673;28;20664;-90
2023/03/12 09:24:45;;;;;;;1.87;1.40;;;2.30;99.90;;;;;;5087448;28;20225;-91
2023/03/12 09:27:16;;;;;;;2.50;1.37;;;2.30;99.90;;;;;;5096187;28;20211;-91
2023/03/12 09:29:50;;;;;;;1.60;1.50;;;2.20;99.90;;;;;;5096555;28;20723;-91
2023/03/12 09:32:30;;;;;;;3.13;1.90;;;2.20;99.90;;;;;;5097053;28;20218;-90
2023/03/12 09:35:04;;;;;;;2.93;1.90;;;2.20;99.90;;;;;;5096718;28;20228;-91
2023/03/12 09:37:36;;;;;;;1.80;1.50;;;2.20;99.90;;;;;;5096072;28;20699;-92
2023/03/12 09:40:11;;;;;;;2.73;1.30;;;2.20;99.90;;;;;;5096997;28;20215;-91
2023/03/12 09:42:47;;;;;;;1.77;1.40;;;2.20;99.90;;;;;;5100260;28;20225;-91
2023/03/12 09:45:22;;;;;;;2.10;1.43;;;2.20;99.90;;;;;;5089768;28;20207;-90
2023/03/12 09:47:56;;;;;;;2.53;1.30;;;2.20;99.90;;;;;;5089316;28;20221;-91
2023/03/12 09:50:33;;;;;;;1.43;1.33;;;2.20;99.90;;;;;;5093226;28;20207;-91
2023/03/12 09:53:10;;;;;;;1.60;1.27;;;2.10;99.90;;;;;;5084851;28;20207;-91
2023/03/12 09:55:44;;;;;;;1.73;1.23;;;2.20;99.90;;;;;;5077251;28;20203;-90
2023/03/12 09:58:19;;;;;;;2.13;1.50;;;2.20;99.90;;;;;;5079158;28;20235;-92
2023/03/12 10:00:53;;;;;;;1.93;1.47;;;2.10;99.90;;;;;;5059743;28;20258;-90
2023/03/12 10:03:35;;;;;;;3.13;1.73;;;2.10;99.90;;;;;;5057916;28;20228;-92
2023/03/12 10:06:16;;;;;;;2.03;1.70;;;2.00;99.90;;;;;;5126385;28;20217;-93
2023/03/12 10:09:03;;;;;;;3.33;1.93;;;2.00;99.90;;;;;;5096449;28;20211;-91
2023/03/12 10:11:46;;;;;;;4.97;2.10;;;2.00;99.90;;;;;;5094674;28;20259;-92
2023/03/12 10:14:31;;;;;;;3.23;1.80;;;2.00;99.90;;;;;;5087871;28;20208;-88
2023/03/12 10:17:20;;;;;;;2.23;1.60;;;1.90;99.90;;;;;;5092950;28;20223;-91
2023/03/12 10:20:10;;;;;;;2.30;1.70;;;1.90;99.90;;;;;;5086988;28;20208;-91
2023/03/12 10:22:53;;;;;;;2.93;1.80;;;1.80;99.90;;;;;;5076070;28;20257;-91
2023/03/12 10:25:29;;;;;;;3.67;2.23;;;1.70;99.90;;;;;;5061194;28;20246;-92
2023/03/12 10:28:07;;;;;;;2.60;1.63;;;1.70;99.90;;;;;;5096053;28;20245;-92
2023/03/12 10:30:42;;;;;;;2.53;1.40;;;1.70;99.90;;;;;;5075800;28;20286;-91
2023/03/12 10:33:17;;;;;;;1.93;1.40;;;1.70;99.90;;;;;;5074103;28;20207;-90
2023/03/12 10:35:51;;;;;;;2.17;1.30;;;1.60;99.90;;;;;;5075015;28;20203;-91
2023/03/12 10:38:29;;;;;;;1.63;1.20;;;1.70;99.90;;;;;;5074652;28;20577;-91
2023/03/12 10:41:00;;;;;;;2.77;1.30;;;1.70;99.90;;;;;;5075430;28;20204;-92
2023/03/12 10:43:35;;;;;;;1.67;1.40;;;1.50;99.90;;;;;;5074927;28;20203;-92
2023/03/12 10:46:32;;;;;;;5.17;1.73;;;1.60;99.90;;;;;;5075574;28;20253;-91
2023/03/12 10:49:27;;;;;;;2.17;1.90;;;1.60;99.90;;;;;;5078616;28;20207;-91
2023/03/12 10:52:02;;;;;;;3.57;2.20;;;1.50;99.90;;;;;;5083508;28;20318;-91
2023/03/12 10:54:39;;;;;;;3.33;2.20;;;1.50;99.90;;;;;;5074931;28;20295;-91
2023/03/12 10:57:11;;;;;;;2.53;1.83;;;1.60;99.90;;;;;;5074489;28;20207;-92
2023/03/12 10:59:46;;;;;;;4.67;2.03;;;1.60;99.90;;;;;;5074742;28;20285;-91
2023/03/12 11:02:36;;;;;;;3.67;1.80;;;1.60;99.90;;;;;;5075534;28;20211;-91
2023/03/12 11:05:22;;;;;;;2.03;1.37;;;1.60;99.90;;;;;;5096015;28;20650;-90
2023/03/12 11:07:54;;;;;;;4.07;2.00;;;1.60;99.90;;;;;;5074210;28;20207;-91
2023/03/12 11:10:42;;;;;;;3.70;1.30;;;1.60;99.90;;;;;;5074899;28;20211;-92
2023/03/12 11:13:26;;;;;;;1.40;1.20;;;1.60;99.90;;;;;;5074642;28;20207;-92
2023/03/12 11:16:00;;;;;;;1.17;0.97;;;1.50;99.90;;;;;;5074953;28;20571;-91
2023/03/12 11:18:39;;;;;;;3.13;1.20;;;1.50;99.90;;;;;;5074085;28;20262;-92
2023/03/12 11:21:20;;;;;;;2.67;1.30;;;1.40;99.90;;;;;;5106006;28;20681;-92
2023/03/12 11:24:11;;;;;;;2.00;1.17;;;1.40;99.90;;;;;;5078168;28;20198;-91
2023/03/12 11:26:52;;;;;;;1.37;1.10;;;1.40;99.90;;;;;;5094871;28;20306;-91
2023/03/12 11:29:31;;;;;;;2.10;1.20;;;1.40;99.90;;;;;;5094181;28;22410;-91
2023/03/12 11:32:08;;;;;;;2.10;1.23;;;1.40;99.90;;;;;;5095334;28;20203;-91
2023/03/12 11:34:40;;;;;;;1.60;1.23;;;1.40;99.90;;;;;;5098589;28;20521;-91
2023/03/12 11:37:27;;;;;;;2.80;1.43;;;1.40;99.90;;;;;;5094729;28;20200;-94
2023/03/12 11:40:14;;;;;;;2.60;1.60;;;1.40;99.90;;;;;;5096080;28;20207;-91
2023/03/12 11:43:00;;;;;;;1.30;1.13;;;1.40;99.90;;;;;;5085721;28;20211;-91
2023/03/12 11:45:40;;;;;;;1.60;1.40;;;1.40;99.90;;;;;;5082679;28;20219;-91
2023/03/12 11:48:22;;;;;;;1.80;1.30;;;1.30;99.90;;;;;;5096360;28;20194;-91
2023/03/12 11:51:07;;;;;;;2.53;1.20;;;1.30;99.90;;;;;;5096738;28;20183;-91
2023/03/12 11:53:56;;;;;;;2.43;1.33;;;1.30;99.90;;;;;;5096007;28;20245;-92
2023/03/12 11:56:31;;;;;;;2.13;1.33;;;1.20;99.90;;;;;;5086745;28;20661;-91
2023/03/12 11:59:24;;;;;;;2.90;1.30;;;1.30;99.90;;;;;;5089895;28;20214;-92
2023/03/12 12:02:06;;;;;;;1.57;1.33;;;1.20;99.90;;;;;;5095099;28;20536;-92
2023/03/12 12:05:09;;;;;;;3.03;1.53;;;1.20;99.90;;;;;;5126397;28;20195;-92
2023/03/12 12:07:53;;;;;;;1.70;1.00;;;1.20;99.90;;;;;;5094530;28;20195;-91
2023/03/12 12:10:35;;;;;;;2.43;1.60;;;1.10;99.90;;;;;;5090000;28;20203;-92
2023/03/12 12:13:13;;;;;;;3.23;1.53;;;1.10;99.90;;;;;;5075863;28;20192;-91
2023/03/12 12:15:55;;;;;;;2.40;1.40;;;1.10;99.90;;;;;;5075024;28;20207;-91
2023/03/12 12:18:44;;;;;;;2.17;1.50;;;1.10;99.90;;;;;;5073166;28;20227;-91
2023/03/12 12:21:35;;;;;;;2.60;1.23;;;1.00;99.90;;;;;;5074482;28;20257;-92
2023/03/12 12:24:19;;;;;;;2.73;1.27;;;1.00;99.90;;;;;;5073244;28;20211;-92
2023/03/12 12:27:00;;;;;;;1.77;1.30;;;1.00;99.90;;;;;;5074414;28;20666;-92
2023/03/12 12:29:44;;;;;;;5.30;1.37;;;1.00;99.90;;;;;;5104727;28;20203;-93
2023/03/12 12:32:24;;;;;;;1.90;1.20;;;1.00;99.90;;;;;;5106560;28;20203;-92
2023/03/12 12:35:07;;;;;;;1.60;1.10;;;1.00;99.90;;;;;;5105836;28;20548;-91
2023/03/12 12:37:50;;;;;;;1.77;1.47;;;0.90;99.90;;;;;;5079643;28;20217;-92
2023/03/12 12:40:26;;;;;;;1.93;1.10;;;0.90;99.90;;;;;;5095396;28;20217;-92
2023/03/12 12:43:05;;;;;;;1.60;1.17;;;0.90;99.90;;;;;;5094537;28;20241;-93
2023/03/12 12:45:41;;;;;;;3.07;1.03;;;0.90;99.90;;;;;;5095812;28;20192;-92
2023/03/12 12:48:22;;;;;;;1.93;1.20;;;0.90;99.90;;;;;;5094728;28;20203;-91
2023/03/12 12:50:58;;;;;;;2.73;1.20;;;0.90;99.90;;;;;;5094289;28;20258;-91
2023/03/12 12:53:38;;;;;;;3.33;1.40;;;0.80;99.90;;;;;;5086154;28;20216;-91
2023/03/12 12:56:17;;;;;;;1.60;1.30;;;0.80;99.90;;;;;;5078320;28;20265;-91
2023/03/12 12:59:04;;;;;;;2.50;1.50;;;0.80;99.90;;;;;;5078670;28;20262;-90
2023/03/12 13:01:37;;;;;;;1.70;1.20;;;0.80;99.90;;;;;;5076895;28;20265;-93
2023/03/12 13:04:15;;;;;;;3.23;1.50;;;0.80;99.90;;;;;;5062077;28;20200;-93
2023/03/12 13:06:58;;;;;;;3.17;1.17;;;0.90;99.90;;;;;;5079476;28;20231;-92
2023/03/12 13:09:43;;;;;;;1.90;1.10;;;0.90;99.90;;;;;;5078918;28;20200;-92
2023/03/12 13:12:22;;;;;;;1.40;1.20;;;0.90;99.90;;;;;;5079465;28;20282;-92
2023/03/12 13:14:57;;;;;;;1.23;0.90;;;0.90;99.90;;;;;;5076403;28;20571;-91
2023/03/12 13:17:32;;;;;;;1.77;1.10;;;0.90;99.90;;;;;;5076385;28;20235;-93
2023/03/12 13:20:19;;;;;;;2.03;1.10;;;1.00;99.90;;;;;;5085648;28;20215;-91
2023/03/12 13:23:10;;;;;;;1.83;1.10;;;1.00;99.90;;;;;;5097173;28;20202;-92
2023/03/12 13:25:53;;;;;;;1.97;1.10;;;1.10;99.90;;;;;;5078091;28;20219;-92
2023/03/12 13:28:35;;;;;;;1.63;1.10;;;1.10;99.90;;;;;;5074611;28;20257;-92
2023/03/12 13:31:37;;;;;;;2.73;1.10;;;1.10;99.90;;;;;;5076553;28;20214;-91
2023/03/12 13:34:33;;;;;;;1.90;1.20;;;1.10;99.90;;;;;;5076681;28;20207;-92
2023/03/12 13:37:29;;;;;;;1.60;0.90;;;1.10;99.90;;;;;;5056538;28;20240;-92